Time;durP1;ratioP1;P1;durP2;ratioP2;P2;SDS_P1;SDS_P2;PMS_P1;PMS_P2;Temp;Humidity;BMP_temperature;BMP_pressure;BME280_temperature;BME280_humidity;BME280_pressure;Samples;Min_cycle;Max_cycle;Signal;HPM_P1;HPM_P2
2023/08/28 00:01:37;;;;;;;12.98;9.98;;;614.90;2432.00;;;;;;4938277;29;20035;-84
2023/08/28 00:04:03;;;;;;;18.30;11.52;;;614.90;2432.00;;;;;;4938351;29;20030;-82
2023/08/28 00:06:29;;;;;;;15.15;11.55;;;615.00;2432.00;;;;;;4956803;28;20468;-82
2023/08/28 00:08:55;;;;;;;16.80;10.55;;;614.80;2432.00;;;;;;4938533;29;20403;-82
2023/08/28 00:11:21;;;;;;;15.00;10.60;;;614.70;2432.00;;;;;;4922851;29;20031;-83
2023/08/28 00:13:47;;;;;;;12.52;9.48;;;614.80;2432.00;;;;;;4922971;29;20038;-83
2023/08/28 00:16:12;;;;;;;13.45;10.00;;;614.90;2432.00;;;;;;4922957;29;20035;-83
2023/08/28 00:18:38;;;;;;;14.85;10.88;;;614.90;2432.00;;;;;;4923249;29;20512;-83
2023/08/28 00:21:04;;;;;;;19.00;12.20;;;614.80;2432.00;;;;;;4923083;29;20027;-83
2023/08/28 00:23:32;;;;;;;17.92;9.90;;;614.60;2432.00;;;;;;4922853;29;20078;-83
2023/08/28 00:26:00;;;;;;;15.68;10.18;;;614.80;2432.00;;;;;;4940127;29;20047;-82
2023/08/28 00:28:25;;;;;;;13.27;9.75;;;614.80;2432.00;;;;;;4922881;29;20028;-83
2023/08/28 00:30:51;;;;;;;12.75;9.90;;;614.80;2432.00;;;;;;4922633;29;20028;-83
2023/08/28 00:33:17;;;;;;;16.92;10.30;;;614.80;2432.00;;;;;;4922835;29;20528;-83
2023/08/28 00:35:43;;;;;;;17.35;10.30;;;614.80;2432.00;;;;;;4922586;29;20035;-84
2023/08/28 00:38:12;;;;;;;15.90;9.95;;;614.80;2432.00;;;;;;4939905;29;20039;-81
2023/08/28 00:40:39;;;;;;;17.00;10.60;;;614.90;2432.00;;;;;;4922873;29;20024;-84
2023/08/28 00:43:06;;;;;;;16.90;9.77;;;614.90;2432.00;;;;;;4922189;29;20039;-81
2023/08/28 00:45:40;;;;;;;17.20;9.35;;;614.80;2432.00;;;;;;4923919;29;20471;-86
2023/08/28 00:48:06;;;;;;;16.88;10.45;;;614.80;2432.00;;;;;;4924096;29;20032;-83
2023/08/28 00:50:32;;;;;;;14.15;9.63;;;614.50;2432.00;;;;;;4937854;29;20030;-81
2023/08/28 00:52:57;;;;;;;17.17;10.27;;;614.60;2432.00;;;;;;4938350;29;20126;-81
2023/08/28 00:55:23;;;;;;;11.73;9.73;;;614.60;2432.00;;;;;;4938731;29;20024;-82
2023/08/28 00:57:49;;;;;;;13.77;9.18;;;614.50;2432.00;;;;;;4938163;29;20040;-81
2023/08/28 01:00:15;;;;;;;14.57;10.85;;;614.50;2432.00;;;;;;4938454;29;20051;-83
2023/08/28 01:02:41;;;;;;;14.27;9.60;;;614.50;2432.00;;;;;;4938087;29;20035;-82
2023/08/28 01:05:08;;;;;;;14.32;9.85;;;614.50;2432.00;;;;;;4937865;29;20035;-83
2023/08/28 01:07:51;;;;;;;12.30;9.20;;;614.50;2432.00;;;;;;4938205;29;20042;-83
2023/08/28 01:10:27;;;;;;;15.75;10.05;;;614.40;2432.00;;;;;;4956052;29;20047;-82
2023/08/28 01:13:15;;;;;;;16.38;9.95;;;614.50;2432.00;;;;;;4958495;29;20071;-83
2023/08/28 01:15:41;;;;;;;14.98;10.52;;;;;;;;;;4957865;29;20053;-84
2023/08/28 01:18:08;;;;;;;12.40;9.15;;;614.50;2432.00;;;;;;4939520;29;20488;-82
2023/08/28 01:20:36;;;;;;;13.30;10.57;;;614.50;2432.00;;;;;;4956726;29;20030;-82
2023/08/28 01:23:39;;;;;;;13.25;10.32;;;589.40;2432.00;;;;;;4940719;29;20480;-83
2023/08/28 01:26:06;;;;;;;13.38;9.30;;;;;;;;;;4940828;29;20126;-81
2023/08/28 01:28:32;;;;;;;14.15;9.95;;;589.70;2432.00;;;;;;4941157;29;20113;-82
2023/08/28 01:30:58;;;;;;;15.10;9.80;;;589.70;2432.00;;;;;;4958196;29;20071;-83
2023/08/28 01:33:24;;;;;;;16.75;11.55;;;589.70;2432.00;;;;;;4957923;29;20082;-82
2023/08/28 01:36:06;;;;;;;18.83;11.25;;;589.70;2432.00;;;;;;4940647;29;20031;-83
2023/08/28 01:38:36;;;;;;;13.77;10.02;;;589.50;2432.00;;;;;;4940719;29;20476;-83
2023/08/28 01:41:05;;;;;;;13.93;10.20;;;614.40;2432.00;;;;;;4940895;29;20038;-82
2023/08/28 01:43:37;;;;;;;13.93;10.80;;;589.70;2432.00;;;;;;4940606;29;20034;-83
2023/08/28 01:46:05;;;;;;;13.48;10.98;;;589.70;2432.00;;;;;;4940458;29;20031;-81
2023/08/28 01:48:33;;;;;;;13.63;10.05;;;589.50;2432.00;;;;;;4940501;29;20126;-82
2023/08/28 01:50:59;;;;;;;15.35;11.05;;;589.50;2432.00;;;;;;4941142;29;20483;-83
2023/08/28 01:53:26;;;;;;;14.32;10.82;;;589.40;2432.00;;;;;;4957294;29;20106;-84
2023/08/28 01:56:24;;;;;;;14.30;10.07;;;589.20;2432.00;;;;;;4940389;29;20100;-83
2023/08/28 01:58:50;;;;;;;13.80;10.40;;;;;;;;;;4845678;29;20068;-81
2023/08/28 02:01:16;;;;;;;13.73;9.38;;;;;;;;;;4860775;29;20021;-82
2023/08/28 02:03:42;;;;;;;16.50;9.75;;;588.90;2432.00;;;;;;4860929;29;20028;-82
2023/08/28 02:06:09;;;;;;;13.73;10.50;;;588.80;2432.00;;;;;;4845989;29;20062;-82
2023/08/28 02:08:35;;;;;;;15.43;10.00;;;564.10;2432.00;;;;;;4860357;29;20045;-81
2023/08/28 02:11:01;;;;;;;19.63;10.50;;;588.90;2432.00;;;;;;4860442;29;20053;-82
2023/08/28 02:13:28;;;;;;;15.80;10.00;;;588.90;2432.00;;;;;;4860910;29;20555;-82
2023/08/28 02:15:54;;;;;;;16.92;10.95;;;589.00;2432.00;;;;;;4860582;29;20069;-81
2023/08/28 02:18:20;;;;;;;15.50;10.73;;;589.10;2432.00;;;;;;4860724;29;20044;-82
2023/08/28 02:20:46;;;;;;;13.80;10.50;;;588.90;2432.00;;;;;;4860590;29;20170;-82
2023/08/28 02:23:12;;;;;;;16.27;10.02;;;588.80;2432.00;;;;;;4860226;29;20030;-83
2023/08/28 02:25:46;;;;;;;16.83;10.70;;;588.80;2432.00;;;;;;4860501;29;20418;-81
2023/08/28 02:28:12;;;;;;;17.77;10.35;;;564.10;2432.00;;;;;;4847709;29;20056;-83
2023/08/28 02:30:38;;;;;;;15.18;10.05;;;564.10;2432.00;;;;;;4826500;29;20033;-81
2023/08/28 02:33:04;;;;;;;13.60;10.57;;;564.00;2432.00;;;;;;4827308;29;20120;-82
2023/08/28 02:35:30;;;;;;;13.68;10.25;;;563.90;2432.00;;;;;;4916466;29;20134;-81
2023/08/28 02:37:55;;;;;;;14.18;10.43;;;563.60;2432.00;;;;;;4920253;29;20524;-83
2023/08/28 02:40:21;;;;;;;14.32;10.57;;;563.90;2432.00;;;;;;4920745;29;20063;-83
2023/08/28 02:42:47;;;;;;;15.10;10.18;;;564.00;2432.00;;;;;;4937190;29;20032;-81
2023/08/28 02:45:13;;;;;;;12.43;9.13;;;564.10;2432.00;;;;;;4920641;29;20115;-82
2023/08/28 02:47:39;;;;;;;14.73;9.20;;;588.90;2432.00;;;;;;4920957;29;20122;-81
2023/08/28 02:50:05;;;;;;;15.50;10.35;;;589.00;2432.00;;;;;;4920734;29;20472;-80
2023/08/28 02:52:31;;;;;;;13.18;10.40;;;588.80;2432.00;;;;;;4922087;29;20122;-80
2023/08/28 02:54:57;;;;;;;16.40;10.20;;;564.10;2432.00;;;;;;4941896;29;20070;-80
2023/08/28 02:57:22;;;;;;;14.88;9.93;;;564.10;2432.00;;;;;;4921909;29;20028;-82
2023/08/28 02:59:48;;;;;;;17.48;10.18;;;564.10;2432.00;;;;;;4921079;29;20031;-83
2023/08/28 03:02:14;;;;;;;13.52;9.48;;;564.10;2432.00;;;;;;4920908;29;20384;-82
2023/08/28 03:04:42;;;;;;;15.65;10.27;;;564.10;2432.00;;;;;;4937252;29;20031;-82
2023/08/28 03:07:08;;;;;;;16.98;10.68;;;563.90;2432.00;;;;;;4920546;29;20539;-82
2023/08/28 03:09:34;;;;;;;13.23;10.68;;;564.00;2432.00;;;;;;4916999;29;20059;-83
2023/08/28 03:12:00;;;;;;;15.38;10.70;;;564.00;2432.00;;;;;;4917288;29;20044;-82
2023/08/28 03:14:26;;;;;;;14.52;9.63;;;563.90;2432.00;;;;;;4918515;29;20031;-82
2023/08/28 03:16:52;;;;;;;16.67;9.75;;;563.90;2432.00;;;;;;4916967;29;20119;-82
2023/08/28 03:19:18;;;;;;;14.32;10.52;;;563.80;2432.00;;;;;;4916764;29;20179;-81
2023/08/28 03:21:44;;;;;;;13.75;10.23;;;563.90;2432.00;;;;;;4918683;29;20377;-83
2023/08/28 03:24:09;;;;;;;16.30;10.25;;;563.80;2432.00;;;;;;4916916;29;20067;-82
2023/08/28 03:26:35;;;;;;;15.20;11.13;;;563.70;2432.00;;;;;;4918096;29;20033;-83
2023/08/28 03:29:01;;;;;;;14.88;10.30;;;563.60;2432.00;;;;;;4917173;29;20028;-81
2023/08/28 03:31:28;;;;;;;12.73;10.40;;;563.60;2432.00;;;;;;4916602;29;20524;-81
2023/08/28 03:33:54;;;;;;;15.50;10.32;;;;;;;;;;4916944;29;20029;-81
2023/08/28 03:36:20;;;;;;;17.60;10.35;;;;;;;;;;4918111;29;20044;-81
2023/08/28 03:38:46;;;;;;;10.90;9.77;;;;;;;;;;4916192;29;20033;-82
2023/08/28 03:41:12;;;;;;;13.73;10.63;;;;;;;;;;4916300;29;20062;-81
2023/08/28 03:43:38;;;;;;;14.52;10.23;;;;;;;;;;4917137;29;20024;-83
2023/08/28 03:46:05;;;;;;;19.40;11.55;;;;;;;;;;4915943;29;20031;-81
2023/08/28 03:48:31;;;;;;;16.58;10.07;;;;;;;;;;4916363;29;20119;-82
2023/08/28 03:50:57;;;;;;;14.63;10.13;;;;;;;;;;4919293;29;20091;-82
2023/08/28 03:53:23;;;;;;;14.85;10.68;;;;;;;;;;4920317;29;20126;-82
2023/08/28 03:55:49;;;;;;;14.68;11.35;;;;;;;;;;4920562;29;20020;-81
2023/08/28 03:58:17;;;;;;;15.90;10.40;;;;;;;;;;4920598;29;20035;-82
2023/08/28 04:00:43;;;;;;;15.60;9.45;;;;;;;;;;4917092;29;20020;-81
2023/08/28 04:03:10;;;;;;;12.98;9.82;;;;;;;;;;4916867;29;20024;-81
2023/08/28 04:05:38;;;;;;;13.68;9.68;;;;;;;;;;4916886;29;20025;-81
2023/08/28 04:08:04;;;;;;;15.35;10.55;;;;;;;;;;4916301;29;20028;-82
2023/08/28 04:10:30;;;;;;;17.02;10.75;;;;;;;;;;4935958;29;20051;-82
2023/08/28 04:12:56;;;;;;;19.20;10.88;;;563.20;2432.00;;;;;;4918848;29;20083;-83
2023/08/28 04:15:22;;;;;;;17.42;10.80;;;;;;;;;;4919352;29;20353;-82
2023/08/28 04:17:48;;;;;;;18.75;10.73;;;;;;;;;;4920025;29;20033;-81
2023/08/28 04:20:15;;;;;;;17.67;10.57;;;;;;;;;;4919307;29;20472;-82
2023/08/28 04:22:43;;;;;;;16.33;11.73;;;;;;;;;;4919554;29;20027;-82
2023/08/28 04:25:10;;;;;;;20.42;12.32;;;;;;;;;;4919475;29;20024;-80
2023/08/28 04:27:36;;;;;;;18.27;11.82;;;;;;;;;;4919188;29;20024;-80
2023/08/28 04:30:02;;;;;;;20.80;11.57;;;538.20;2406.40;;;;;;4919380;29;20024;-82
2023/08/28 04:32:28;;;;;;;17.13;11.52;;;538.10;2406.40;;;;;;4919046;29;20034;-81
2023/08/28 04:34:54;;;;;;;17.77;10.57;;;;;;;;;;4935823;29;20028;-81
2023/08/28 04:37:20;;;;;;;15.48;11.30;;;;;;;;;;4919272;29;20027;-80
2023/08/28 04:39:46;;;;;;;18.92;11.63;;;;;;;;;;4919309;29;20035;-82
2023/08/28 04:42:15;;;;;;;17.60;11.18;;;;;;;;;;4926709;29;20019;-81
2023/08/28 04:44:41;;;;;;;17.30;10.57;;;;;;;;;;4926754;29;20117;-81
2023/08/28 04:47:07;;;;;;;20.17;10.82;;;;;;;;;;4926884;29;20507;-81
2023/08/28 04:49:33;;;;;;;19.33;11.70;;;;;;;;;;4918975;29;20111;-81
2023/08/28 04:51:59;;;;;;;18.58;11.40;;;;;;;;;;4929111;29;20118;-81
2023/08/28 04:54:25;;;;;;;17.40;11.60;;;;;;;;;;4941783;29;20027;-82
2023/08/28 04:56:52;;;;;;;18.60;11.55;;;;;;;;;;4952768;29;20051;-80
2023/08/28 04:59:18;;;;;;;17.23;11.52;;;;;;;;;;4941498;29;20050;-81
2023/08/28 05:01:44;;;;;;;16.00;10.05;;;;;;;;;;4925940;29;20110;-82
2023/08/28 05:04:10;;;;;;;20.67;11.93;;;;;;;;;;4938499;29;20462;-79
2023/08/28 05:06:36;;;;;;;17.38;10.75;;;;;;;;;;4941457;29;20468;-79
2023/08/28 05:09:03;;;;;;;16.02;10.13;;;;;;;;;;4940704;29;20087;-82
2023/08/28 05:11:29;;;;;;;23.20;11.32;;;;;;;;;;4958814;29;20027;-80
2023/08/28 05:13:56;;;;;;;18.55;10.13;;;;;;;;;;4941302;29;20078;-81
2023/08/28 05:16:22;;;;;;;20.38;10.27;;;;;;;;;;4957588;29;20531;-81
2023/08/28 05:18:49;;;;;;;22.35;11.70;;;;;;;;;;4958256;29;20487;-81
2023/08/28 05:21:15;;;;;;;18.27;11.32;;;;;;;;;;4941170;29;20073;-81
2023/08/28 05:23:41;;;;;;;15.15;11.07;;;;;;;;;;4957700;29;20028;-80
2023/08/28 05:26:07;;;;;;;14.65;9.13;;;;;;;;;;4940585;29;20023;-80
2023/08/28 05:28:37;;;;;;;13.35;10.18;;;;;;;;;;4941067;29;20032;-80
2023/08/28 05:31:03;;;;;;;12.55;10.25;;;;;;;;;;4941219;29;20030;-81
2023/08/28 05:33:30;;;;;;;15.18;10.23;;;;;;;;;;4940939;29;20031;-81
2023/08/28 05:35:56;;;;;;;15.32;10.05;;;;;;;;;;4957872;29;20515;-82
2023/08/28 05:38:22;;;;;;;15.27;9.40;;;;;;;;;;4939958;29;20384;-82
2023/08/28 05:40:49;;;;;;;16.48;10.55;;;;;;;;;;4940957;29;20034;-82
2023/08/28 05:43:15;;;;;;;15.68;11.65;;;;;;;;;;4940840;29;20043;-83
2023/08/28 05:45:41;;;;;;;17.30;11.52;;;;;;;;;;4957460;29;20035;-82
2023/08/28 05:48:07;;;;;;;22.73;11.15;;;;;;;;;;4940415;29;20046;-82
2023/08/28 05:50:33;;;;;;;18.50;10.10;;;;;;;;;;4940405;29;20069;-81
2023/08/28 05:53:00;;;;;;;25.17;11.95;;;;;;;;;;4940500;29;20069;-81
2023/08/28 05:55:26;;;;;;;15.30;11.02;;;;;;;;;;4957306;29;20472;-82
2023/08/28 05:57:52;;;;;;;13.75;10.30;;;;;;;;;;4940730;29;20077;-81
2023/08/28 06:00:18;;;;;;;15.50;10.38;;;;;;;;;;4956155;29;20079;-81
2023/08/28 06:02:44;;;;;;;16.27;11.10;;;;;;;;;;4940535;29;20034;-81
2023/08/28 06:05:10;;;;;;;20.05;11.15;;;;;;;;;;4957051;28;20085;-81
2023/08/28 06:07:37;;;;;;;17.58;12.10;;;;;;;;;;4940345;29;20035;-79
2023/08/28 06:10:04;;;;;;;20.13;11.95;;;;;;;;;;4937087;29;20142;-81
2023/08/28 06:12:30;;;;;;;19.02;12.57;;;;;;;;;;4936775;29;20031;-82
2023/08/28 06:14:56;;;;;;;16.20;11.88;;;;;;;;;;4923497;29;20468;-81
2023/08/28 06:17:23;;;;;;;18.95;12.68;;;;;;;;;;4919557;29;20040;-83
2023/08/28 06:19:49;;;;;;;25.15;13.73;;;;;;;;;;4918761;29;20035;-82
2023/08/28 06:22:16;;;;;;;20.58;12.63;;;;;;;;;;4917820;29;20028;-82
2023/08/28 06:24:42;;;;;;;20.67;11.10;;;;;;;;;;4917384;29;20025;-82
2023/08/28 06:27:08;;;;;;;17.23;11.00;;;;;;;;;;4917142;29;20066;-83
2023/08/28 06:29:34;;;;;;;17.85;10.48;;;;;;;;;;4920216;29;20036;-82
2023/08/28 06:32:00;;;;;;;19.98;10.52;;;;;;;;;;4917659;29;20030;-82
2023/08/28 06:34:26;;;;;;;18.73;10.63;;;;;;;;;;4917026;29;20028;-82
2023/08/28 06:36:53;;;;;;;14.68;9.13;;;;;;;;;;4920272;29;20032;-83
2023/08/28 06:39:19;;;;;;;13.30;10.27;;;;;;;;;;4919243;29;20040;-83
2023/08/28 06:41:45;;;;;;;15.90;10.45;;;;;;;;;;4919470;29;20031;-82
2023/08/28 06:44:11;;;;;;;19.25;10.90;;;615.10;2432.00;;;;;;4917956;29;20031;-83
2023/08/28 06:46:37;;;;;;;19.20;11.23;;;615.10;2432.00;;;;;;4917859;29;20032;-82
2023/08/28 06:49:04;;;;;;;19.15;10.45;;;;;;;;;;4918396;29;20406;-81
2023/08/28 06:51:30;;;;;;;13.55;9.43;;;;;;;;;;4918971;29;20103;-83
2023/08/28 06:53:56;;;;;;;18.42;11.23;;;;;;;;;;4918761;29;20067;-82
2023/08/28 06:56:22;;;;;;;15.15;9.20;;;;;;;;;;4922935;29;20119;-82
2023/08/28 06:58:48;;;;;;;14.57;9.48;;;;;;;;;;4919418;29;20119;-82
2023/08/28 07:01:14;;;;;;;16.50;8.43;;;;;;;;;;4918626;29;20392;-82
2023/08/28 07:03:40;;;;;;;11.13;7.55;;;;;;;;;;4917830;29;20092;-81
2023/08/28 07:06:06;;;;;;;10.57;7.72;;;640.90;2432.00;;;;;;4918787;29;20032;-80
2023/08/28 07:08:32;;;;;;;11.23;7.72;;;640.80;2432.00;;;;;;4923159;29;20067;-80
2023/08/28 07:10:57;;;;;;;14.50;8.05;;;665.60;2432.00;;;;;;4923158;29;20036;-82
2023/08/28 07:13:23;;;;;;;12.18;7.82;;;;;;;;;;4921372;29;20023;-83
2023/08/28 07:15:50;;;;;;;10.98;6.93;;;;;;;;;;4938496;29;20024;-82
2023/08/28 07:18:27;;;;;;;12.07;8.60;;;;;;;;;;4921485;29;20039;-85
2023/08/28 07:20:54;;;;;;;13.30;7.63;;;;;;;;;;4920951;29;20039;-81
2023/08/28 07:23:20;;;;;;;13.93;7.90;;;;;;;;;;4919788;29;20035;-83
2023/08/28 07:25:46;;;;;;;12.07;7.50;;;;;;;;;;4920468;29;20066;-81
2023/08/28 07:28:13;;;;;;;9.85;7.55;;;;;;;;;;4937342;29;20477;-82
2023/08/28 07:30:40;;;;;;;16.65;7.90;;;;;;;;;;4920523;29;20023;-81
2023/08/28 07:33:06;;;;;;;12.50;7.15;;;;;;;;;;4920667;29;20046;-82
2023/08/28 07:35:35;;;;;;;9.73;7.38;;;;;;;;;;4920235;29;20027;-82
2023/08/28 07:38:05;;;;;;;14.05;7.05;;;691.80;2432.00;;;;;;4919255;29;20027;-82
2023/08/28 07:40:32;;;;;;;13.60;7.57;;;691.70;2432.00;;;;;;4919972;29;20038;-79
2023/08/28 07:42:58;;;;;;;11.68;7.20;;;;;;;;;;4920819;29;20032;-79
2023/08/28 07:45:25;;;;;;;11.85;7.63;;;;;;;;;;4941730;29;20151;-79
2023/08/28 07:47:51;;;;;;;16.63;8.05;;;;;;;;;;4926756;29;20024;-79
2023/08/28 07:50:17;;;;;;;13.30;6.57;;;717.10;2432.00;;;;;;4926649;29;20035;-80
2023/08/28 07:52:43;;;;;;;11.30;6.97;;;717.00;2432.00;;;;;;4925689;29;20028;-80
2023/08/28 07:55:09;;;;;;;10.05;6.88;;;;;;;;;;4921644;29;20036;-79
2023/08/28 07:57:35;;;;;;;14.40;7.30;;;717.40;2432.00;;;;;;4919606;29;20023;-80
2023/08/28 08:00:06;;;;;;;12.18;6.53;;;;;;;;;;4920903;29;20032;-80
2023/08/28 08:02:32;;;;;;;11.63;5.70;;;;;;;;;;4921014;29;20467;-80
2023/08/28 08:04:59;;;;;;;12.75;6.55;;;;;;;;;;4921126;29;20258;-80
2023/08/28 08:07:25;;;;;;;13.15;6.68;;;;;;;;;;4920904;29;20032;-79
2023/08/28 08:09:51;;;;;;;10.43;6.03;;;;;;;;;;4937892;29;20055;-81
2023/08/28 08:12:17;;;;;;;9.85;6.25;;;;;;;;;;4938200;29;20060;-81
2023/08/28 08:14:43;;;;;;;10.63;7.18;;;;;;;;;;4938206;29;20151;-83
2023/08/28 08:17:09;;;;;;;13.25;6.82;;;;;;;;;;4920553;29;20035;-83
2023/08/28 08:19:36;;;;;;;9.73;6.35;;;;;;;;;;4920656;29;20038;-82
2023/08/28 08:22:02;;;;;;;10.75;6.18;;;;;;;;;;4938301;29;20023;-82
2023/08/28 08:24:28;;;;;;;10.55;7.82;;;;;;;;;;4921021;29;20047;-83
2023/08/28 08:26:56;;;;;;;16.08;6.88;;;;;;;;;;4920856;29;20047;-83
2023/08/28 08:29:22;;;;;;;17.08;6.70;;;;;;;;;;4926129;29;20028;-83
2023/08/28 08:31:50;;;;;;;11.45;7.03;;;;;;;;;;4923428;29;20035;-82
2023/08/28 08:34:18;;;;;;;12.35;7.20;;;;;;;;;;4924158;29;20023;-83
2023/08/28 08:36:44;;;;;;;8.80;6.40;;;;;;;;;;4923174;29;20078;-83
2023/08/28 08:39:10;;;;;;;11.15;6.18;;;;;;;;;;4939760;29;20027;-82
2023/08/28 08:41:39;;;;;;;9.25;6.78;;;;;;;;;;4923172;29;20028;-83
2023/08/28 08:44:06;;;;;;;10.05;6.88;;;;;;;;;;4923249;29;20027;-82
2023/08/28 08:46:33;;;;;;;10.98;6.97;;;;;;;;;;4922879;29;20046;-82
2023/08/28 08:49:00;;;;;;;10.80;6.95;;;;;;;;;;4922836;29;20027;-83
2023/08/28 08:51:30;;;;;;;12.43;6.93;;;;;;;;;;4940127;29;20356;-82
2023/08/28 08:54:06;;;;;;;12.32;7.55;;;;;;;;;;4922364;29;20032;-83
2023/08/28 08:56:33;;;;;;;12.15;7.80;;;;;;;;;;4922621;29;20028;-82
2023/08/28 08:58:59;;;;;;;11.82;7.32;;;;;;;;;;4922697;29;20090;-82
2023/08/28 09:01:26;;;;;;;11.27;7.20;;;;;;;;;;4923239;29;20024;-83
2023/08/28 09:03:53;;;;;;;10.45;6.43;;;;;;;;;;4924095;29;20035;-83
2023/08/28 09:06:19;;;;;;;11.75;6.90;;;;;;;;;;4924766;29;20087;-82
2023/08/28 09:08:46;;;;;;;11.82;5.63;;;;;;;;;;4923258;29;20048;-82
2023/08/28 09:11:12;;;;;;;16.23;8.50;;;;;;;;;;4940923;29;20475;-82
2023/08/28 09:13:38;;;;;;;13.60;7.22;;;;;;;;;;4923498;29;20127;-82
2023/08/28 09:16:05;;;;;;;10.65;6.55;;;;;;;;;;4923391;29;20103;-80
2023/08/28 09:18:32;;;;;;;13.90;6.00;;;;;;;;;;4923473;29;20032;-81
2023/08/28 09:21:07;;;;;;;9.05;6.60;;;;;;;;;;4922378;29;20032;-81
2023/08/28 09:23:34;;;;;;;10.20;6.75;;;;;;;;;;4923213;29;20027;-82
2023/08/28 09:26:00;;;;;;;19.30;7.80;;;;;;;;;;4923553;29;20032;-81
2023/08/28 09:28:27;;;;;;;16.13;6.97;;;;;;;;;;4939547;29;20032;-81
2023/08/28 09:30:53;;;;;;;11.60;6.85;;;;;;;;;;4939755;29;20042;-82
2023/08/28 09:33:20;;;;;;;11.50;6.28;;;;;;;;;;4923758;29;20108;-82
2023/08/28 09:35:46;;;;;;;13.52;6.45;;;;;;;;;;4924211;29;20024;-81
2023/08/28 09:38:13;;;;;;;10.20;7.20;;;;;;;;;;4921800;29;20499;-81
2023/08/28 09:40:41;;;;;;;9.93;6.88;;;;;;;;;;4940186;29;20071;-82
2023/08/28 09:43:14;;;;;;;14.40;6.68;;;;;;;;;;4922544;29;20031;-81
2023/08/28 09:45:40;;;;;;;13.63;7.63;;;;;;;;;;4923545;29;20026;-81
2023/08/28 09:48:07;;;;;;;7.95;6.75;;;;;;;;;;4922317;29;20043;-81
2023/08/28 09:50:34;;;;;;;8.45;6.53;;;;;;;;;;4922010;29;20377;-81
2023/08/28 09:53:11;;;;;;;11.95;6.70;;;;;;;;;;4921844;29;20079;-81
2023/08/28 09:55:38;;;;;;;9.85;7.43;;;;;;;;;;4939008;29;20064;-82
2023/08/28 09:58:10;;;;;;;13.98;7.07;;;;;;;;;;4939002;29;20070;-81
2023/08/28 10:00:39;;;;;;;9.90;7.28;;;;;;;;;;4923357;29;20050;-81
2023/08/28 10:03:07;;;;;;;11.05;8.00;;;;;;;;;;4940129;29;20031;-80
2023/08/28 10:05:33;;;;;;;10.80;7.95;;;;;;;;;;4939785;29;20024;-81
2023/08/28 10:08:02;;;;;;;9.70;6.43;;;;;;;;;;4922208;29;20032;-82
2023/08/28 10:10:30;;;;;;;13.32;6.82;;;;;;;;;;4921627;29;20055;-82
2023/08/28 10:12:56;;;;;;;12.05;7.25;;;;;;;;;;4925127;29;20034;-81
2023/08/28 10:15:23;;;;;;;11.25;6.45;;;;;;;;;;4922410;29;20153;-81
2023/08/28 10:17:50;;;;;;;9.38;6.43;;;;;;;;;;4922292;29;20138;-81
2023/08/28 10:20:18;;;;;;;7.40;6.10;;;;;;;;;;4922106;29;20060;-81
2023/08/28 10:22:45;;;;;;;13.63;7.72;;;;;;;;;;4938334;29;20030;-80
2023/08/28 10:25:13;;;;;;;9.65;6.40;;;;;;;;;;4921503;29;20114;-82
2023/08/28 10:27:40;;;;;;;12.93;7.00;;;;;;;;;;4922436;29;20123;-82
2023/08/28 10:30:08;;;;;;;9.32;6.10;;;;;;;;;;4921893;29;20036;-82
2023/08/28 10:32:34;;;;;;;10.85;6.32;;;;;;;;;;4921558;29;20031;-83
2023/08/28 10:35:01;;;;;;;9.07;6.25;;;;;;;;;;4922085;29;20451;-81
2023/08/28 10:37:28;;;;;;;12.32;7.30;;;;;;;;;;4922434;29;20114;-82
2023/08/28 10:39:58;;;;;;;12.75;8.18;;;;;;;;;;4921357;29;20027;-82
2023/08/28 10:42:26;;;;;;;10.18;6.63;;;;;;;;;;4921303;29;20141;-82
2023/08/28 10:44:52;;;;;;;11.73;6.57;;;947.30;1766.40;;;;;;4938026;29;20078;-83
2023/08/28 10:47:19;;;;;;;9.57;6.38;;;947.40;1766.40;;;;;;4921522;29;20035;-83
2023/08/28 10:49:46;;;;;;;11.85;6.70;;;947.30;1766.40;;;;;;4921052;29;20465;-83
2023/08/28 10:52:11;;;;;;;11.00;6.38;;;947.60;1740.80;;;;;;4921530;29;20357;-82
2023/08/28 10:54:38;;;;;;;13.18;5.80;;;;;;;;;;4921458;29;20491;-82
2023/08/28 10:57:09;;;;;;;11.15;6.88;;;;;;;;;;4922556;29;20042;-82
2023/08/28 10:59:45;;;;;;;9.90;6.63;;;;;;;;;;4921808;29;20075;-82
2023/08/28 11:02:12;;;;;;;9.65;6.63;;;;;;;;;;4926618;29;20555;-82
2023/08/28 11:04:40;;;;;;;11.43;6.57;;;;;;;;;;4921873;29;20024;-82
2023/08/28 11:07:10;;;;;;;8.98;6.75;;;;;;;;;;4921930;29;20051;-83
2023/08/28 11:09:38;;;;;;;11.20;7.53;;;;;;;;;;4906955;29;20056;-83
2023/08/28 11:12:04;;;;;;;11.80;7.07;;;;;;;;;;4921591;29;20052;-82
2023/08/28 11:14:34;;;;;;;10.63;6.70;;;;;;;;;;4920850;29;20055;-83
2023/08/28 11:17:13;;;;;;;12.68;6.88;;;;;;;;;;4920599;29;20428;-81
2023/08/28 11:19:55;;;;;;;12.40;6.93;;;;;;;;;;4921150;29;20505;-80
2023/08/28 11:22:30;;;;;;;9.57;6.68;;;;;;;;;;4939859;29;20031;-80
2023/08/28 11:24:56;;;;;;;13.57;7.32;;;;;;;;;;4921548;29;20028;-83
2023/08/28 11:27:37;;;;;;;10.88;6.45;;;;;;;;;;4920565;29;20118;-82
2023/08/28 11:30:06;;;;;;;;;;;;;;;;;;4921548;29;20380;-82
2023/08/28 11:32:36;;;;;;;12.52;6.70;;;;;;;;;;4920107;29;19954;-82
2023/08/28 11:35:06;;;;;;;13.70;7.20;;;;;;;;;;4938070;29;20137;-83
2023/08/28 11:37:32;;;;;;;11.90;6.88;;;;;;;;;;4920905;29;20051;-82
2023/08/28 11:39:58;;;;;;;10.52;7.07;;;;;;;;;;4937439;29;20052;-83
2023/08/28 11:42:26;;;;;;;12.05;6.40;;;;;;;;;;4937295;29;20364;-84
2023/08/28 11:44:52;;;;;;;12.82;6.50;;;;;;;;;;4920521;29;20023;-83
2023/08/28 11:47:27;;;;;;;11.98;6.88;;;;;;;;;;4920609;29;20455;-82
2023/08/28 11:49:58;;;;;;;8.05;5.88;;;;;;;;;;4920132;29;20026;-82
2023/08/28 11:52:24;;;;;;;9.05;6.53;;;;;;;;;;4920870;29;20383;-83
2023/08/28 11:54:51;;;;;;;10.10;5.80;;;;;;;;;;4919855;29;20548;-82
2023/08/28 11:57:18;;;;;;;9.75;6.25;;;;;;;;;;4937655;29;20031;-82
2023/08/28 11:59:45;;;;;;;11.20;6.20;;;;;;;;;;4937096;29;20407;-82
2023/08/28 12:02:13;;;;;;;11.05;7.47;;;;;;;;;;4921782;29;20055;-81
2023/08/28 12:04:40;;;;;;;8.43;6.50;;;;;;;;;;4924507;29;20024;-81
2023/08/28 12:07:16;;;;;;;12.65;6.70;;;;;;;;;;4941455;29;20062;-80
2023/08/28 12:09:42;;;;;;;10.10;7.00;;;;;;;;;;4923643;29;20048;-81
2023/08/28 12:12:08;;;;;;;13.23;6.55;;;;;;;;;;4924758;29;20491;-80
2023/08/28 12:14:34;;;;;;;9.30;6.68;;;;;;;;;;4941636;29;20078;-80
2023/08/28 12:17:00;;;;;;;8.57;6.60;;;;;;;;;;4923739;29;20051;-80
2023/08/28 12:19:27;;;;;;;10.40;6.07;;;;;;;;;;4924652;29;20028;-80
2023/08/28 12:22:04;;;;;;;13.57;6.47;;;;;;;;;;4924357;29;20030;-80
2023/08/28 12:24:30;;;;;;;8.85;6.20;;;;;;;;;;4923505;29;20024;-81
2023/08/28 12:26:56;;;;;;;9.80;6.57;;;;;;;;;;4923672;29;20020;-81
2023/08/28 12:29:26;;;;;;;8.85;7.35;;;;;;;;;;4926236;29;20063;-81
2023/08/28 12:31:52;;;;;;;9.43;6.55;;;;;;;;;;4943953;29;20083;-80
2023/08/28 12:34:18;;;;;;;9.90;7.13;;;;;;;;;;4927510;29;20028;-81
2023/08/28 12:36:48;;;;;;;12.48;6.53;;;;;;;;;;4927442;29;20019;-79
2023/08/28 12:39:20;;;;;;;10.55;6.75;;;;;;;;;;4943994;29;20102;-81
2023/08/28 12:42:03;;;;;;;11.63;7.30;;;;;;;;;;4939440;29;20027;-81
2023/08/28 12:44:31;;;;;;;9.30;6.68;;;;;;;;;;4926272;29;20416;-81
2023/08/28 12:46:57;;;;;;;12.90;6.82;;;;;;;;;;4923981;29;20034;-80
2023/08/28 12:49:23;;;;;;;9.35;7.10;;;;;;;;;;4941172;29;20028;-82
2023/08/28 12:51:49;;;;;;;15.30;7.10;;;;;;;;;;4923547;29;20031;-80
2023/08/28 12:54:19;;;;;;;11.05;6.45;;;;;;;;;;4942966;29;20130;-81
2023/08/28 12:56:46;;;;;;;10.68;6.97;;;;;;;;;;4942262;29;20016;-80
2023/08/28 12:59:13;;;;;;;8.68;6.60;;;;;;;;;;4940717;29;20032;-80
2023/08/28 13:01:39;;;;;;;10.77;6.32;;;;;;;;;;4925139;29;20034;-81
2023/08/28 13:04:05;;;;;;;11.82;6.45;;;;;;;;;;4942073;29;20066;-82
2023/08/28 13:06:31;;;;;;;12.07;6.95;;;;;;;;;;4923801;29;20023;-83
2023/08/28 13:08:57;;;;;;;10.55;6.97;;;;;;;;;;4923496;29;20052;-81
2023/08/28 13:11:24;;;;;;;11.68;6.57;;;;;;;;;;4923279;29;20023;-81
2023/08/28 13:13:50;;;;;;;13.18;6.60;;;;;;;;;;4923068;29;20028;-82
2023/08/28 13:16:16;;;;;;;14.50;7.20;;;;;;;;;;4923706;29;20024;-80
2023/08/28 13:18:42;;;;;;;10.00;6.63;;;;;;;;;;4923149;29;20032;-81
2023/08/28 13:21:10;;;;;;;9.07;7.07;;;;;;;;;;4923182;29;20070;-83
2023/08/28 13:23:36;;;;;;;9.40;6.95;;;;;;;;;;4923766;29;20028;-81
2023/08/28 13:26:03;;;;;;;9.48;6.70;;;;;;;;;;4939938;29;20453;-82
2023/08/28 13:28:29;;;;;;;10.80;6.28;;;;;;;;;;4923430;29;20028;-82
2023/08/28 13:30:55;;;;;;;11.85;6.85;;;;;;;;;;4923124;29;20028;-82
2023/08/28 13:33:22;;;;;;;10.98;6.63;;;;;;;;;;4924018;29;20023;-82
2023/08/28 13:35:48;;;;;;;9.13;6.60;;;;;;;;;;4923820;29;20024;-82
2023/08/28 13:38:18;;;;;;;11.07;6.70;;;;;;;;;;4923217;29;20027;-82
2023/08/28 13:40:44;;;;;;;12.45;6.18;;;;;;;;;;4922478;29;20028;-82